Terminal Aerodrome Forecast
Issued by NWS

Home | Current Version | Previous Version | Text Only | Print | Product List | Glossary On
Versions: 1 2 3 4 5 6 7 8 9 10 11 12 13 14 15 16 17 18 19 20 21 22 23 24 25
000
FTUS41 KRLX 011700
TAFCKB
TAF
KCKB 011721Z 0118/0218 15004KT 6SM -RA BR BKN020
     FM011900 14004KT P6SM BKN090
     FM020000 17008KT P6SM OVC035
     FM020200 17010G17KT 5SM -RA OVC025
     FM020800 22009G15KT 3SM -RA BR OVC015
     FM021400 25010G17KT 1SM -SN OVC008
     FM021700 27013G22KT 2SM -SHSN BR OVC010=

USA.gov is the U.S. government's official web portal to all federal, state and local government web resources and services.